Aviation Digital Data Service (ADDS)

Output produced by METARs form (1524 UTC 15 November 2018)
found at http://aviationweather.gov/metar/data/
 
METAR text: UGSB 151500Z 13009KT 9999 FEW026CB BKN069 10/07 Q1019 NOSIG
Conditions at: UGSB (BATUMI , GE) observed 1500 UTC 15 November 2018
Temperature: 10.0°C (50°F)
Dewpoint: 7.0°C (45°F) [RH = 82%]
Pressure (altimeter): 30.09 inches Hg (1019.0 mb)
Winds: from the SE (130 degrees) at 10 MPH (9 knots; 4.6 m/s)
Visibility: 6 or more miles (10+ km)
Ceiling: 6900 feet AGL
Clouds: few clouds at 2600 feet AGL
broken clouds at 6900 feet AGL
Weather: no significant weather observed at this time

METAR text: UGSB 151430Z 13009KT 9999 FEW023CB SCT071 10/06 Q1019 NOSIG
Conditions at: UGSB (BATUMI , GE) observed 1430 UTC 15 November 2018
Temperature: 10.0°C (50°F)
Dewpoint: 6.0°C (43°F) [RH = 76%]
Pressure (altimeter): 30.09 inches Hg (1019.0 mb)
Winds: from the SE (130 degrees) at 10 MPH (9 knots; 4.6 m/s)
Visibility: 6 or more miles (10+ km)
Ceiling: at least 12,000 feet AGL
Clouds: few clouds at 2300 feet AGL
scattered clouds at 7100 feet AGL
Weather: no significant weather observed at this time

Forecast for: UGSB (BATUMI , GE)
Text: TAF UGSB 151100Z 1512/1612 20010KT 9999 FEW025 SCT070 TX14/1610Z TN09/1601Z
Forecast period: 1200 to 1400 UTC 15 November 2018
Forecast type: FROM: standard forecast or significant change
Winds: from the SSW (200 degrees) at 12 MPH (10 knots; 5.1 m/s)
Visibility: 6 or more miles 10+ km)
Ceiling: at least 12,000 feet AGL
Clouds: few clouds at 2500 feet AGL
scattered clouds at 7000 feet AGL
Weather: no significant weather forecast for this period
Text: PROB40
Forecast period: 1300 UTC 15 November 2018 to 0500 UTC 16 November 2018
Forecast type: TEMPORARY: The following changes expected for less than half the time period
Visibility: missing
Ceiling: 2500 feet AGL
Clouds: broken clouds at 2500 feet AGL
Weather: SHRA  (rain showers)
Text: TEMPO 1513/1605 SHRA BKN025CB
Forecast period: 1400 UTC 15 November 2018 to 0800 UTC 16 November 2018
Forecast type: BECOMING: Conditions expected to become as follows by 1700 UTC 15 November 2018
Winds: from the SE (130 degrees) at 14 MPH (12 knots; 6.2 m/s)
Visibility: 6 or more miles 10+ km)
Ceiling: at least 12,000 feet AGL
Clouds: few clouds at 2500 feet AGL
scattered clouds at 7000 feet AGL
Weather: no significant weather forecast for this period
Text: BECMG 1514/1517 13012KT
Forecast period: 0800 to 1200 UTC 16 November 2018
Forecast type: BECOMING: Conditions expected to become as follows by 1000 UTC 16 November 2018
Winds: from the W (270 degrees) at 9 MPH (8 knots; 4.1 m/s)
Visibility: 6 or more miles 10+ km)
Ceiling: at least 12,000 feet AGL
Clouds: few clouds at 2500 feet AGL
scattered clouds at 7000 feet AGL
Weather: no significant weather forecast for this period